Time;durP1;ratioP1;P1;durP2;ratioP2;P2;SDS_P1;SDS_P2;PMS_P1;PMS_P2;Temp;Humidity;BMP_temperature;BMP_pressure;BME280_temperature;BME280_humidity;BME280_pressure;Samples;Min_cycle;Max_cycle;Signal;HPM_P1;HPM_P2
2023/10/12 00:02:04;;;;;;;10.32;5.03;;;20.80;73.10;;;;;;5091560;28;20035;-46
2023/10/12 00:04:38;;;;;;;10.65;5.20;;;20.80;73.00;;;;;;5091107;28;20040;-44
2023/10/12 00:07:25;;;;;;;17.27;6.20;;;20.80;72.70;;;;;;5091237;28;20039;-49
2023/10/12 00:10:12;;;;;;;12.05;5.05;;;20.80;72.80;;;;;;5091240;28;20024;-44
2023/10/12 00:12:47;;;;;;;13.75;5.60;;;20.70;73.20;;;;;;5091233;28;20105;-45
2023/10/12 00:17:44;;;;;;;12.73;5.22;;;20.80;72.80;;;;;;5113021;22;20560;-56
2023/10/12 00:20:21;;;;;;;13.63;4.97;;;20.80;72.90;;;;;;5090670;28;20028;-57
2023/10/12 00:22:47;;;;;;;14.40;5.50;;;20.80;72.70;;;;;;5090920;28;20087;-57
2023/10/12 00:25:16;;;;;;;10.25;5.13;;;20.80;72.60;;;;;;5090085;28;20032;-58
2023/10/12 00:27:43;;;;;;;11.13;5.43;;;20.80;72.60;;;;;;5075138;28;20020;-57
2023/10/12 00:30:09;;;;;;;10.20;5.65;;;20.80;73.10;;;;;;5070819;28;20741;-58
2023/10/12 00:32:36;;;;;;;10.73;5.75;;;20.80;72.50;;;;;;5070609;28;20025;-56
2023/10/12 00:35:02;;;;;;;13.32;5.60;;;20.80;72.50;;;;;;5070353;28;20097;-57
2023/10/12 00:37:29;;;;;;;12.43;5.28;;;20.80;72.40;;;;;;5070626;28;20493;-57
2023/10/12 00:42:24;;;;;;;9.55;4.72;;;20.70;72.30;;;;;;5052622;28;20154;-57
2023/10/12 00:44:52;;;;;;;13.82;5.20;;;20.80;72.40;;;;;;5052651;28;20052;-58
2023/10/12 00:50:11;;;;;;;13.07;5.40;;;20.80;72.60;;;;;;5070673;28;20043;-57
2023/10/12 00:52:52;;;;;;;11.48;5.03;;;20.80;72.30;;;;;;5070477;28;20032;-55
2023/10/12 00:55:21;;;;;;;13.68;4.90;;;20.80;72.30;;;;;;5052627;28;20029;-58
2023/10/12 00:57:51;;;;;;;14.13;4.97;;;20.70;72.30;;;;;;5070799;28;20039;-57
2023/10/12 01:00:18;;;;;;;;;;;20.80;72.30;;;;;;5052918;28;20555;-57
2023/10/12 01:03:06;;;;;;;13.77;5.30;;;20.80;72.20;;;;;;5070270;28;19908;-54
2023/10/12 01:05:35;;;;;;;10.13;4.90;;;20.80;72.40;;;;;;5070273;28;20033;-58
2023/10/12 01:08:04;;;;;;;12.40;5.50;;;20.80;72.40;;;;;;5070242;28;20032;-56
2023/10/12 01:10:32;;;;;;;10.30;5.03;;;20.80;72.40;;;;;;5070217;28;20016;-57
2023/10/12 01:13:00;;;;;;;9.70;4.80;;;20.70;72.40;;;;;;5052279;28;20100;-57
2023/10/12 01:15:32;;;;;;;14.32;5.38;;;20.80;72.50;;;;;;5070217;28;20100;-58
2023/10/12 01:17:57;;;;;;;8.80;5.00;;;20.80;72.40;;;;;;5052101;28;20445;-57
2023/10/12 01:20:26;;;;;;;11.85;5.10;;;20.80;72.50;;;;;;5070088;28;20112;-57
2023/10/12 01:22:53;;;;;;;11.50;5.32;;;20.80;72.60;;;;;;5069389;28;20033;-57
2023/10/12 01:25:28;;;;;;;12.30;4.80;;;20.80;72.60;;;;;;5069960;28;20035;-57
2023/10/12 01:27:55;;;;;;;10.13;4.75;;;20.80;72.50;;;;;;5070114;28;20024;-57
2023/10/12 01:30:22;;;;;;;10.30;5.00;;;20.80;72.50;;;;;;5070242;28;20095;-57
2023/10/12 01:32:57;;;;;;;11.45;5.00;;;20.80;72.50;;;;;;5069825;28;20027;-55
2023/10/12 01:35:32;;;;;;;11.68;5.75;;;20.80;72.50;;;;;;5071021;28;20033;-55
2023/10/12 01:38:01;;;;;;;10.82;4.65;;;20.80;72.50;;;;;;5073811;28;20063;-55
2023/10/12 01:40:40;;;;;;;12.40;5.30;;;20.80;72.60;;;;;;5073579;28;20029;-54
2023/10/12 01:43:12;;;;;;;10.02;5.30;;;20.80;72.40;;;;;;5073378;28;20032;-57
2023/10/12 01:45:41;;;;;;;10.77;4.80;;;20.80;72.40;;;;;;5073503;28;20369;-52
2023/10/12 01:48:10;;;;;;;13.07;5.68;;;20.80;72.30;;;;;;5073364;28;20059;-57
2023/10/12 01:50:39;;;;;;;10.40;4.68;;;20.80;72.40;;;;;;5073486;28;20029;-56
2023/10/12 01:53:08;;;;;;;;;;;20.80;72.20;;;;;;5073602;28;20105;-55
2023/10/12 01:55:33;;;;;;;12.80;5.10;;;20.80;72.20;;;;;;5055541;28;19908;-58
2023/10/12 01:58:00;;;;;;;10.25;4.63;;;20.80;72.10;;;;;;5055462;28;20029;-56
2023/10/12 02:00:28;;;;;;;13.23;5.05;;;20.80;72.20;;;;;;5055253;28;20115;-56
2023/10/12 02:03:15;;;;;;;9.32;4.63;;;20.80;72.30;;;;;;5072922;28;20036;-57
2023/10/12 02:06:00;;;;;;;10.38;4.75;;;20.80;72.20;;;;;;5055458;28;20039;-56
2023/10/12 02:08:32;;;;;;;11.65;4.75;;;20.80;72.40;;;;;;5055397;28;20032;-56
2023/10/12 02:13:50;;;;;;;9.98;4.60;;;20.80;72.40;;;;;;5055248;28;20031;-59
2023/10/12 02:16:24;;;;;;;10.95;4.47;;;20.80;73.00;;;;;;5055051;28;20044;-58
2023/10/12 02:18:50;;;;;;;10.88;4.45;;;20.80;72.40;;;;;;5055255;28;20404;-57
2023/10/12 02:21:22;;;;;;;12.05;4.57;;;20.80;72.50;;;;;;5073042;28;20451;-57
2023/10/12 02:34:18;;;;;;;11.40;4.85;;;20.80;72.40;;;;;;5072586;28;20021;-57
2023/10/12 02:39:30;;;;;;;12.02;4.85;;;20.80;72.50;;;;;;5072669;28;20051;-57
2023/10/12 02:47:23;;;;;;;10.60;4.38;;;20.80;72.40;;;;;;5053849;28;20035;-57
2023/10/12 02:50:48;;;;;;;10.43;4.60;;;20.80;72.60;;;;;;5072663;28;20062;-57
2023/10/12 02:52:43;;;;;;;9.98;4.30;;;20.80;72.60;;;;;;5061549;28;20500;-56
2023/10/12 02:58:06;;;;;;;11.50;4.47;;;20.80;72.50;;;;;;5054425;28;20024;-58
2023/10/12 03:03:08;;;;;;;8.95;4.60;;;20.80;72.80;;;;;;5053821;28;20541;-56
2023/10/12 03:05:46;;;;;;;12.77;4.55;;;20.80;72.60;;;;;;5054066;28;20040;-57
2023/10/12 03:08:16;;;;;;;8.07;4.28;;;20.80;72.60;;;;;;5054120;28;20047;-57
2023/10/12 03:13:25;;;;;;;11.20;4.68;;;20.80;72.70;;;;;;5071524;28;20111;-57
2023/10/12 03:15:56;;;;;;;11.23;4.65;;;20.80;72.80;;;;;;5053816;28;20107;-57
2023/10/12 03:18:26;;;;;;;10.30;4.63;;;20.80;72.80;;;;;;5071911;28;20412;-58
2023/10/12 03:21:11;;;;;;;10.57;4.95;;;20.80;72.70;;;;;;5053942;28;20044;-57
2023/10/12 03:23:46;;;;;;;8.32;4.30;;;20.80;72.80;;;;;;5053544;28;20115;-56
2023/10/12 03:26:34;;;;;;;10.93;4.32;;;20.80;72.80;;;;;;5071496;28;20396;-57
2023/10/12 03:29:18;;;;;;;12.23;4.53;;;20.80;72.90;;;;;;5071162;28;20093;-57
2023/10/12 03:34:30;;;;;;;8.00;4.20;;;20.80;72.90;;;;;;5053215;28;20107;-57
2023/10/12 03:36:58;;;;;;;10.93;4.38;;;20.80;72.90;;;;;;5071439;28;20400;-57
2023/10/12 03:39:28;;;;;;;9.60;4.72;;;20.80;73.00;;;;;;5071292;28;20037;-57
2023/10/12 03:41:55;;;;;;;;;;;20.80;73.00;;;;;;5071707;28;20035;-57
2023/10/12 03:44:36;;;;;;;10.05;4.72;;;20.80;73.60;;;;;;5070945;28;19922;-57
2023/10/12 03:47:15;;;;;;;12.05;4.55;;;20.80;73.20;;;;;;5071524;28;20028;-58
2023/10/12 03:52:19;;;;;;;11.15;4.68;;;20.80;73.30;;;;;;5071215;28;20052;-57
2023/10/12 03:57:30;;;;;;;12.57;4.15;;;20.80;73.20;;;;;;5070975;28;20021;-58
2023/10/12 04:05:21;;;;;;;9.60;4.30;;;20.80;73.30;;;;;;5070918;28;20055;-57
2023/10/12 04:11:20;;;;;;;9.07;4.60;;;20.80;73.60;;;;;;5070907;28;19961;-57
2023/10/12 04:13:09;;;;;;;9.40;4.72;;;20.80;73.60;;;;;;5062979;28;20083;-54
2023/10/12 04:18:28;;;;;;;10.85;4.55;;;20.80;73.40;;;;;;5070828;28;20043;-56
2023/10/12 04:20:58;;;;;;;9.98;3.92;;;20.70;73.50;;;;;;5070886;28;20033;-57
2023/10/12 04:28:50;;;;;;;8.52;4.57;;;20.80;73.70;;;;;;5070756;28;20029;-57
2023/10/12 04:36:44;;;;;;;9.48;4.07;;;20.80;73.90;;;;;;5070712;28;20074;-57
2023/10/12 04:39:24;;;;;;;9.85;4.38;;;20.80;73.80;;;;;;5070852;28;20056;-57
2023/10/12 04:46:58;;;;;;;7.78;3.88;;;20.80;73.90;;;;;;5070724;28;20028;-55
2023/10/12 04:52:16;;;;;;;9.13;3.72;;;20.80;73.90;;;;;;5071554;28;20046;-57
2023/10/12 04:57:27;;;;;;;7.00;4.10;;;20.80;73.90;;;;;;5071125;28;20087;-56
2023/10/12 05:07:57;;;;;;;9.73;4.28;;;20.80;74.60;;;;;;5071050;28;20032;-58
2023/10/12 05:13:05;;;;;;;8.35;3.88;;;20.80;74.00;;;;;;5074862;28;20029;-58
2023/10/12 05:15:54;;;;;;;11.05;4.07;;;20.80;74.70;;;;;;5075258;28;20095;-56
2023/10/12 05:18:24;;;;;;;8.20;3.75;;;20.80;74.00;;;;;;5057478;28;20063;-57
2023/10/12 05:20:51;;;;;;;9.35;4.10;;;20.80;74.00;;;;;;5075002;28;20496;-57
2023/10/12 05:23:17;;;;;;;8.23;3.90;;;20.80;74.20;;;;;;5074785;28;20430;-56
2023/10/12 05:28:29;;;;;;;11.05;4.32;;;20.80;74.20;;;;;;5056800;28;20029;-57
2023/10/12 05:30:59;;;;;;;8.45;3.70;;;20.80;74.30;;;;;;5074688;28;20028;-56
2023/10/12 05:36:08;;;;;;;11.35;4.03;;;20.80;74.30;;;;;;5074646;28;20076;-54
2023/10/12 05:38:39;;;;;;;7.32;3.65;;;20.80;74.30;;;;;;5074736;28;20033;-57
2023/10/12 05:41:10;;;;;;;7.00;3.70;;;20.80;74.50;;;;;;5074423;28;20031;-57
2023/10/12 05:43:40;;;;;;;8.82;4.30;;;20.80;74.40;;;;;;5074169;28;20051;-57
2023/10/12 05:46:15;;;;;;;8.68;4.03;;;20.80;74.40;;;;;;5074186;28;20039;-57
2023/10/12 05:48:52;;;;;;;9.88;3.88;;;20.70;74.30;;;;;;5074398;28;20024;-56
2023/10/12 05:51:24;;;;;;;8.52;3.80;;;20.80;74.40;;;;;;5074253;28;20032;-57
2023/10/12 05:54:01;;;;;;;13.05;4.05;;;20.80;74.50;;;;;;5073897;28;20055;-55
2023/10/12 05:56:29;;;;;;;8.18;3.50;;;20.80;75.20;;;;;;5074070;28;20035;-56
2023/10/12 05:58:55;;;;;;;11.43;3.75;;;20.70;75.10;;;;;;5074069;28;20025;-52
2023/10/12 06:01:34;;;;;;;9.02;4.00;;;20.80;74.90;;;;;;5073988;28;20036;-56
2023/10/12 06:04:00;;;;;;;7.18;3.75;;;20.80;74.60;;;;;;5073977;28;20031;-57
2023/10/12 06:06:26;;;;;;;14.00;4.20;;;20.80;74.60;;;;;;5073890;28;20032;-59
2023/10/12 06:08:55;;;;;;;8.00;4.13;;;20.80;75.70;;;;;;5073970;28;20040;-53
2023/10/12 06:11:26;;;;;;;10.93;4.35;;;20.80;76.20;;;;;;5073897;28;20098;-56
2023/10/12 06:13:53;;;;;;;19.73;4.50;;;20.80;76.40;;;;;;5073681;28;20103;-53
2023/10/12 06:16:20;;;;;;;36.45;5.07;;;20.80;75.60;;;;;;5080327;22;20116;-53
2023/10/12 06:18:49;;;;;;;20.00;5.20;;;20.80;75.30;;;;;;5098473;28;20032;-49
2023/10/12 06:21:17;;;;;;;10.93;4.65;;;20.70;75.20;;;;;;5093311;28;20028;-53
2023/10/12 18:56:29;;;;;;;18.90;5.78;;;20.50;72.90;;;;;;5067686;28;20387;-47
2023/10/12 18:58:55;;;;;;;24.00;6.25;;;20.50;71.50;;;;;;5048760;28;20087;-49
2023/10/12 19:01:21;;;;;;;18.45;5.43;;;20.50;70.90;;;;;;5048529;28;20056;-48
2023/10/12 19:03:47;;;;;;;15.00;5.57;;;20.50;70.80;;;;;;5048390;28;20036;-53
2023/10/12 19:06:14;;;;;;;15.70;5.00;;;20.60;71.70;;;;;;5048139;28;20065;-51
2023/10/12 19:08:41;;;;;;;16.73;5.22;;;20.60;70.30;;;;;;5048172;28;20021;-52
2023/10/12 19:11:10;;;;;;;16.60;5.03;;;20.60;69.50;;;;;;5048043;28;20025;-53
2023/10/12 19:13:42;;;;;;;16.57;5.07;;;20.70;70.10;;;;;;5048334;28;20033;-51
2023/10/12 19:16:13;;;;;;;11.68;4.78;;;20.70;69.60;;;;;;5047874;28;20274;-53
2023/10/12 19:18:39;;;;;;;15.73;5.18;;;20.70;70.30;;;;;;5048270;28;20443;-52
2023/10/12 19:21:05;;;;;;;14.02;4.43;;;20.80;71.10;;;;;;5048221;28;20079;-52
2023/10/12 19:23:30;;;;;;;14.15;4.60;;;20.80;70.50;;;;;;5047274;28;20040;-53
2023/10/12 19:25:57;;;;;;;14.35;5.00;;;20.80;71.30;;;;;;5047650;28;20037;-52
2023/10/12 19:28:26;;;;;;;18.50;4.80;;;20.80;70.80;;;;;;5048261;28;20079;-50
2023/10/12 19:30:56;;;;;;;15.82;4.68;;;20.80;71.10;;;;;;5046691;28;20036;-53
2023/10/12 19:33:26;;;;;;;11.52;3.85;;;20.90;71.00;;;;;;5030191;28;20432;-54
2023/10/12 19:35:52;;;;;;;12.60;4.20;;;20.90;71.30;;;;;;5047432;28;20037;-55
2023/10/12 19:38:20;;;;;;;11.80;4.00;;;20.90;72.00;;;;;;5047739;28;20075;-53
2023/10/12 19:40:46;;;;;;;12.48;4.63;;;20.90;71.60;;;;;;5046660;28;20036;-54
2023/10/12 19:43:12;;;;;;;13.63;4.78;;;20.90;71.60;;;;;;5048020;28;20408;-51
2023/10/12 19:45:40;;;;;;;15.80;4.88;;;20.90;71.60;;;;;;5047403;28;20029;-54
2023/10/12 19:48:07;;;;;;;13.68;4.80;;;20.90;71.50;;;;;;5047759;28;20018;-51
2023/10/12 19:50:36;;;;;;;10.95;4.03;;;20.90;71.40;;;;;;5047842;28;20420;-54
2023/10/12 19:53:05;;;;;;;11.23;4.17;;;20.90;71.40;;;;;;5047790;28;20028;-54
2023/10/12 19:55:36;;;;;;;13.25;4.10;;;20.90;72.10;;;;;;5044729;28;20033;-52
2023/10/12 19:58:03;;;;;;;11.63;4.15;;;20.90;71.60;;;;;;5034406;28;20059;-52
2023/10/12 20:05:37;;;;;;;13.50;4.18;;;21.00;72.40;;;;;;5033800;28;20022;-47
2023/10/12 20:08:06;;;;;;;13.48;4.32;;;20.90;71.90;;;;;;5034169;28;20021;-52
2023/10/12 20:10:34;;;;;;;13.88;4.13;;;21.00;72.60;;;;;;5034146;28;20037;-53
2023/10/12 20:13:00;;;;;;;11.00;3.97;;;21.00;72.10;;;;;;5034032;28;20049;-48
2023/10/12 20:15:30;;;;;;;11.48;4.35;;;21.00;73.10;;;;;;5033711;28;20033;-51
2023/10/12 20:17:59;;;;;;;15.65;4.25;;;21.00;72.40;;;;;;5033960;28;20526;-49
2023/10/12 20:20:25;;;;;;;11.35;3.78;;;21.00;72.00;;;;;;5032790;28;20059;-46
2023/10/12 20:22:51;;;;;;;14.10;4.28;;;20.90;72.40;;;;;;5033990;28;20034;-47
2023/10/12 20:25:17;;;;;;;10.57;3.97;;;20.90;72.80;;;;;;5033505;28;20064;-51
2023/10/12 20:27:43;;;;;;;15.30;3.97;;;20.90;72.50;;;;;;5033722;28;20431;-46
2023/10/12 20:30:10;;;;;;;11.80;4.20;;;20.90;72.30;;;;;;5033712;28;20507;-51
2023/10/12 20:32:37;;;;;;;14.75;4.05;;;20.90;73.10;;;;;;5033336;28;20109;-46
2023/10/12 20:35:05;;;;;;;8.57;3.90;;;20.90;72.60;;;;;;5032727;28;20461;-54
2023/10/12 20:37:33;;;;;;;11.00;3.55;;;21.00;73.00;;;;;;5033658;28;20033;-50
2023/10/12 20:40:00;;;;;;;9.33;3.77;;;21.00;72.70;;;;;;5033624;28;20053;-51
2023/10/12 20:42:26;;;;;;;11.70;4.32;;;21.00;72.20;;;;;;5033354;28;20032;-47
2023/10/12 20:44:54;;;;;;;12.48;3.67;;;20.90;72.20;;;;;;5033140;28;20033;-55
2023/10/12 20:47:20;;;;;;;10.93;3.92;;;20.90;72.30;;;;;;5033517;28;20037;-52
2023/10/12 20:49:46;;;;;;;12.43;4.45;;;20.90;72.40;;;;;;5033452;28;20025;-54
2023/10/12 20:52:12;;;;;;;9.15;3.55;;;20.90;72.20;;;;;;5033359;28;20026;-51
2023/10/12 20:54:41;;;;;;;8.85;3.58;;;20.90;72.20;;;;;;5032955;28;20029;-48
2023/10/12 20:57:07;;;;;;;9.75;4.10;;;20.90;72.50;;;;;;5033118;28;20029;-46
2023/10/12 20:59:36;;;;;;;11.43;4.40;;;20.90;72.30;;;;;;5033335;28;20040;-54
2023/10/12 21:02:04;;;;;;;9.53;3.97;;;20.90;72.50;;;;;;5033361;28;20043;-52
2023/10/12 21:04:33;;;;;;;13.82;4.18;;;20.90;72.20;;;;;;5033045;28;20396;-54
2023/10/12 21:07:03;;;;;;;8.38;3.60;;;20.90;72.60;;;;;;5032872;28;20025;-51
2023/10/12 21:09:32;;;;;;;12.43;3.90;;;20.90;72.60;;;;;;5032365;28;20033;-56
2023/10/12 21:12:21;;;;;;;9.85;4.03;;;20.90;72.60;;;;;;5033005;28;20076;-54
2023/10/12 21:14:48;;;;;;;10.50;4.00;;;20.90;72.40;;;;;;5032651;28;20109;-54
2023/10/12 21:17:32;;;;;;;10.60;3.90;;;20.90;72.30;;;;;;5033526;28;20030;-50
2023/10/12 21:22:52;;;;;;;11.90;4.30;;;20.90;71.90;;;;;;5034016;28;20029;-47
2023/10/12 21:25:19;;;;;;;7.38;3.58;;;20.90;72.10;;;;;;5032781;28;20109;-48
2023/10/12 21:27:48;;;;;;;12.50;4.07;;;20.90;71.90;;;;;;5032837;28;20025;-53
2023/10/12 21:30:17;;;;;;;12.48;4.20;;;20.90;71.90;;;;;;5032573;28;20040;-51
2023/10/12 21:32:46;;;;;;;11.05;4.03;;;20.90;72.10;;;;;;5031451;28;20033;-53
2023/10/12 21:35:27;;;;;;;8.60;4.15;;;20.90;72.40;;;;;;5032215;28;20401;-49
2023/10/12 21:37:53;;;;;;;10.02;4.38;;;20.80;72.30;;;;;;5032600;28;20033;-50
2023/10/12 21:40:32;;;;;;;12.43;3.83;;;20.80;72.30;;;;;;5032572;28;20568;-51
2023/10/12 21:43:07;;;;;;;9.38;3.85;;;20.80;72.20;;;;;;5032346;28;20378;-54
2023/10/12 21:45:40;;;;;;;8.75;3.85;;;20.80;72.30;;;;;;5031984;28;20076;-52
2023/10/12 21:48:12;;;;;;;10.77;3.78;;;20.80;72.00;;;;;;5032381;28;20112;-51
2023/10/12 21:50:39;;;;;;;9.52;3.20;;;20.90;72.20;;;;;;5032301;28;20029;-52
2023/10/12 21:53:07;;;;;;;11.18;3.65;;;20.90;72.10;;;;;;5032320;28;20029;-54
2023/10/12 21:55:34;;;;;;;7.57;3.80;;;20.90;72.00;;;;;;5031923;28;20026;-51
2023/10/12 21:58:01;;;;;;;10.63;3.95;;;20.90;72.10;;;;;;5032240;28;20033;-52
2023/10/12 22:00:49;;;;;;;9.85;3.90;;;20.90;71.70;;;;;;5032114;28;20032;-54
2023/10/12 22:03:19;;;;;;;9.38;3.70;;;20.90;72.00;;;;;;5032089;28;20083;-54
2023/10/12 22:05:48;;;;;;;13.73;3.83;;;20.90;71.70;;;;;;5031579;28;20029;-52
2023/10/12 22:08:15;;;;;;;7.82;3.45;;;20.90;71.80;;;;;;5032041;28;20030;-56
2023/10/12 22:10:41;;;;;;;9.45;3.47;;;20.90;71.70;;;;;;5031942;28;20096;-54
2023/10/12 22:13:10;;;;;;;7.15;3.58;;;20.80;71.60;;;;;;5032256;28;20461;-49
2023/10/12 22:16:01;;;;;;;8.88;3.13;;;20.90;71.80;;;;;;5031578;28;20061;-50
2023/10/12 22:18:27;;;;;;;6.22;3.15;;;20.90;71.50;;;;;;5031749;28;20076;-55
2023/10/12 22:20:57;;;;;;;6.90;3.42;;;20.90;71.80;;;;;;5031929;28;20033;-53
2023/10/12 22:23:23;;;;;;;10.52;3.78;;;20.90;71.60;;;;;;5031828;28;20443;-51
2023/10/12 22:25:50;;;;;;;7.80;3.42;;;20.90;71.90;;;;;;5031310;28;20071;-54
2023/10/12 22:28:18;;;;;;;8.52;3.47;;;20.90;71.70;;;;;;5031717;28;20033;-50
2023/10/12 22:30:45;;;;;;;7.80;3.15;;;20.90;71.60;;;;;;5031637;28;20037;-50
2023/10/12 22:33:12;;;;;;;7.88;2.95;;;20.90;71.60;;;;;;5030639;28;20043;-46
2023/10/12 22:35:39;;;;;;;11.45;3.40;;;20.90;71.90;;;;;;5031247;28;20026;-49
2023/10/12 22:38:07;;;;;;;7.72;3.38;;;20.90;71.70;;;;;;5031731;28;20033;-50
2023/10/12 22:40:33;;;;;;;8.98;3.38;;;20.90;71.50;;;;;;5031573;28;20037;-50
2023/10/12 22:42:59;;;;;;;8.88;3.15;;;20.90;71.80;;;;;;5031708;28;20029;-48
2023/10/12 22:45:25;;;;;;;7.63;3.00;;;20.90;71.70;;;;;;5031220;28;20111;-49
2023/10/12 22:47:54;;;;;;;9.38;3.45;;;20.80;71.60;;;;;;5031826;28;20025;-54
2023/10/12 22:50:20;;;;;;;8.13;3.30;;;20.80;71.70;;;;;;5031569;28;20089;-54
2023/10/12 22:52:46;;;;;;;7.68;2.90;;;20.80;72.00;;;;;;5031465;28;20028;-56
2023/10/12 22:55:12;;;;;;;4.85;2.90;;;20.80;71.80;;;;;;5029836;28;20030;-55
2023/10/12 22:57:37;;;;;;;6.78;2.95;;;20.80;72.10;;;;;;5031426;28;20036;-50
2023/10/12 23:00:16;;;;;;;7.45;3.15;;;20.80;71.80;;;;;;5031370;28;20032;-53
2023/10/12 23:02:45;;;;;;;5.88;2.67;;;20.80;71.90;;;;;;5031516;28;20152;-54
2023/10/12 23:05:14;;;;;;;8.02;3.45;;;20.80;71.90;;;;;;5031082;28;20572;-53
2023/10/12 23:07:40;;;;;;;6.07;3.20;;;20.80;71.70;;;;;;5031388;28;20022;-54
2023/10/12 23:10:06;;;;;;;9.18;3.25;;;20.80;71.70;;;;;;5030017;28;20519;-54
2023/10/12 23:12:37;;;;;;;6.00;2.72;;;20.80;71.80;;;;;;5031242;28;20030;-49
2023/10/12 23:15:06;;;;;;;7.22;3.05;;;20.80;71.60;;;;;;5031068;28;20033;-54
2023/10/12 23:17:31;;;;;;;6.65;3.05;;;20.80;71.90;;;;;;5031262;28;20025;-52
2023/10/12 23:19:58;;;;;;;7.78;2.95;;;20.80;71.50;;;;;;5031208;28;20041;-53
2023/10/12 23:22:32;;;;;;;6.20;2.70;;;20.80;71.70;;;;;;5031283;28;20033;-52
2023/10/12 23:24:59;;;;;;;5.72;2.67;;;20.80;71.80;;;;;;5030753;28;20033;-52
2023/10/12 23:27:31;;;;;;;5.88;2.97;;;20.80;71.60;;;;;;5030073;28;20029;-56
2023/10/12 23:29:58;;;;;;;9.10;2.97;;;20.80;71.80;;;;;;5031175;28;20028;-51
2023/10/12 23:32:24;;;;;;;9.35;3.08;;;20.80;71.60;;;;;;5034007;28;20022;-54
2023/10/12 23:34:56;;;;;;;8.35;2.50;;;20.80;71.80;;;;;;5034545;28;20079;-51
2023/10/12 23:37:25;;;;;;;7.82;3.10;;;20.80;71.70;;;;;;5034792;28;20037;-55
2023/10/12 23:39:52;;;;;;;9.07;2.67;;;20.80;71.70;;;;;;5034748;28;20443;-53
2023/10/12 23:42:22;;;;;;;9.90;2.83;;;20.80;71.70;;;;;;5034680;28;20058;-54
2023/10/12 23:44:54;;;;;;;6.40;2.47;;;20.80;71.70;;;;;;5034318;28;20030;-51
2023/10/12 23:47:24;;;;;;;5.30;2.63;;;20.80;71.70;;;;;;5034746;28;20029;-48
2023/10/12 23:52:56;;;;;;;8.85;2.75;;;20.70;71.70;;;;;;5034591;28;20108;-54
2023/10/12 23:55:30;;;;;;;7.97;2.83;;;20.80;71.70;;;;;;5034074;28;20041;-51
2023/10/12 23:58:00;;;;;;;5.25;2.55;;;20.70;71.70;;;;;;5034466;28;20378;-54
